TimeEST,TemperatureF,Dew PointF,Humidity,Sea Level PressureIn,VisibilityMPH,Wind Direction,Wind SpeedMPH,Gust SpeedMPH,PrecipitationIn,Events,Conditions,WindDirDegrees,DateUTC
12:53 AM,59.0,52.0,78,29.74,10.0,South,4.6,-,0.00,,Mostly Cloudy,170,2012-12-10 05:53:00
1:53 AM,59.0,51.1,75,29.72,10.0,South,10.4,-,N/A,,Clear,190,2012-12-10 06:53:00
2:53 AM,59.0,51.1,75,29.70,10.0,South,5.8,-,N/A,,Scattered Clouds,190,2012-12-10 07:53:00
3:53 AM,60.1,51.1,72,29.68,10.0,South,8.1,-,N/A,,Overcast,190,2012-12-10 08:53:00
4:39 AM,57.2,51.8,82,29.74,4.0,WNW,8.1,28.8,0.03,Rain,Heavy Rain,290,2012-12-10 09:39:00
4:53 AM,55.9,52.0,87,29.72,9.0,West,5.8,-,0.03,Rain,Light Rain,270,2012-12-10 09:53:00
5:53 AM,54.0,52.0,93,29.71,10.0,SSW,3.5,-,0.05,Rain,Light Rain,210,2012-12-10 10:53:00
7:53 AM,55.0,52.0,89,29.71,6.0,SSW,5.8,-,0.04,Rain,Light Rain,210,2012-12-10 12:53:00
8:53 AM,55.0,52.0,89,29.71,9.0,South,8.1,-,0.04,Rain,Light Rain,190,2012-12-10 13:53:00
9:53 AM,55.0,52.0,89,29.68,10.0,South,8.1,-,0.03,,Overcast,180,2012-12-10 14:53:00
10:53 AM,55.9,52.0,87,29.65,10.0,South,6.9,-,0.00,,Overcast,190,2012-12-10 15:53:00
11:53 AM,55.9,52.0,87,29.62,10.0,SSW,11.5,-,0.00,Rain,Light Rain,200,2012-12-10 16:53:00
12:53 PM,55.9,52.0,87,29.60,9.0,SSW,12.7,24.2,0.02,Rain,Light Rain,210,2012-12-10 17:53:00
1:22 PM,55.4,51.8,88,29.60,8.0,SSW,12.7,-,0.01,Rain,Light Rain,200,2012-12-10 18:22:00
1:53 PM,55.0,52.0,89,29.58,10.0,SSW,10.4,-,0.03,Rain,Light Rain,200,2012-12-10 18:53:00
2:53 PM,55.0,52.0,89,29.56,10.0,SSW,5.8,-,0.02,,Overcast,200,2012-12-10 19:53:00
3:53 PM,55.0,51.1,86,29.56,10.0,SSW,6.9,-,N/A,,Overcast,200,2012-12-10 20:53:00
4:15 PM,53.6,50.0,88,29.60,3.0,WNW,9.2,17.3,0.02,Rain,Light Rain,290,2012-12-10 21:15:00
4:32 PM,51.8,48.2,88,29.60,10.0,NW,3.5,-,0.02,Rain,Light Rain,320,2012-12-10 21:32:00
4:53 PM,52.0,48.9,89,29.59,10.0,NW,6.9,-,0.02,,Overcast,310,2012-12-10 21:53:00
5:24 PM,50.0,48.2,94,29.61,5.0,NW,9.2,-,0.00,Rain,Light Rain,310,2012-12-10 22:24:00
5:53 PM,48.9,46.0,90,29.62,10.0,WNW,9.2,-,0.01,Rain,Light Rain,290,2012-12-10 22:53:00
6:53 PM,44.1,41.0,89,29.69,3.0,West,13.8,20.7,0.08,Rain,Light Rain,280,2012-12-10 23:53:00
7:00 PM,44.6,39.2,81,29.71,7.0,WNW,15.0,23.0,0.01,Rain,Light Rain,290,2012-12-11 00:00:00
7:53 PM,41.0,37.9,89,29.73,10.0,WNW,12.7,-,0.02,Rain,Light Rain,290,2012-12-11 00:53:00
8:07 PM,41.0,37.4,87,29.74,7.0,NW,10.4,19.6,0.00,Rain,Light Rain,320,2012-12-11 01:07:00
8:30 PM,39.2,35.6,87,29.74,10.0,NNW,9.2,-,0.00,,Overcast,330,2012-12-11 01:30:00
8:53 PM,39.0,34.0,82,29.77,7.0,Variable,6.9,-,0.01,Rain,Rain,0,2012-12-11 01:53:00
9:08 PM,37.4,33.8,87,29.82,6.0,West,8.1,-,0.02,Rain,Light Rain,270,2012-12-11 02:08:00
9:21 PM,37.4,33.8,87,29.79,7.0,NW,5.8,-,0.03,Rain,Light Rain,320,2012-12-11 02:21:00
9:53 PM,37.0,35.1,93,29.80,6.0,Calm,Calm,-,0.05,Rain,Light Rain,0,2012-12-11 02:53:00
10:07 PM,37.4,33.8,87,29.84,5.0,SW,6.9,-,0.02,Rain,Rain,220,2012-12-11 03:07:00
10:35 PM,35.6,33.8,93,29.81,5.0,Calm,Calm,-,0.05,Rain,Rain,0,2012-12-11 03:35:00
10:42 PM,35.6,33.8,93,29.83,7.0,WSW,3.5,-,0.05,Rain,Light Rain,240,2012-12-11 03:42:00
10:53 PM,36.0,34.0,93,29.83,9.0,SW,5.8,-,0.05,Rain,Light Rain,230,2012-12-11 03:53:00
11:53 PM,36.0,34.0,93,29.83,10.0,West,4.6,-,0.01,,Overcast,260,2012-12-11 04:53:00